Sunnyslope, Idaho
Current Conditions -  °F | °C
As of 1:55 PM on Tuesday 27 Jan 2015 (Local Time) from KEUL Reporting Station
Overcast Overcast  
Wind Chill: 36°   Ceiling: 400
Heat Index: 36°   Visibility: 4mi
Dew Point: 30°   Wind: 0mph
Humidity: 81%   Direction: NA
Pressure: 30.13"   Gusts: NA
Location:  43.676°N, 116.752°W
Report Text: KEUL 272055Z AUTO 00000KT 4SM OVC004 02/M01 A3013 RMK AO1 57010
Loading
Personal Weather Stations






























Interactive Weather Map New forecast layout! Learn more

10-Day Weather Forecast

Advertisements
Track Severe Weather on mobile